createdAt,value
2023-05-22T00:01:37.580Z,29.19
2023-05-22T00:04:04.718Z,29.26
2023-05-22T00:06:31.509Z,29.07
2023-05-22T00:08:58.034Z,29.11
2023-05-22T00:11:24.632Z,29.72
2023-05-22T00:13:51.412Z,29.58
2023-05-22T00:16:17.935Z,29.24
2023-05-22T00:18:44.628Z,29.12
2023-05-22T00:21:11.478Z,29.10
2023-05-22T00:23:38.097Z,29.19
2023-05-22T00:26:04.837Z,29.78
2023-05-22T00:28:31.599Z,29.66
2023-05-22T00:30:58.186Z,29.22
2023-05-22T00:33:24.880Z,30.06
2023-05-22T00:35:51.546Z,29.33
2023-05-22T00:38:32.712Z,29.29
2023-05-22T00:41:00.796Z,28.94
2023-05-22T00:43:27.807Z,28.97
2023-05-22T00:45:54.585Z,29.91
2023-05-22T00:48:21.881Z,30.29
2023-05-22T00:50:50.082Z,30.62
2023-05-22T00:53:18.337Z,30.14
2023-05-22T00:55:45.209Z,30.64
2023-05-22T00:58:17.520Z,30.41
2023-05-22T01:00:45.311Z,30.42
2023-05-22T01:03:12.718Z,30.28
2023-05-22T01:05:40.746Z,30.28
2023-05-22T01:08:08.584Z,30.07
2023-05-22T01:10:37.692Z,30.29
2023-05-22T01:13:28.535Z,30.51
2023-05-22T01:16:37.255Z,29.66
2023-05-22T01:19:47.605Z,29.62
2023-05-22T01:22:32.680Z,29.67
2023-05-22T01:25:28.865Z,29.33
2023-05-22T01:28:33.707Z,29.28
2023-05-22T01:31:14.238Z,29.56
2023-05-22T01:33:48.210Z,29.91
2023-05-22T01:36:20.263Z,30.24
2023-05-22T01:38:47.776Z,30.35
2023-05-22T01:41:14.912Z,30.13
2023-05-22T01:43:42.453Z,29.93
2023-05-22T01:46:09.062Z,30.02
2023-05-22T01:48:35.840Z,29.85
2023-05-22T01:51:07.792Z,29.69
2023-05-22T01:53:46.054Z,29.71
2023-05-22T01:56:16.536Z,29.64
2023-05-22T01:58:49.483Z,29.69
2023-05-22T02:01:19.529Z,29.55
2023-05-22T02:03:48.577Z,29.48
2023-05-22T02:06:17.106Z,29.01
2023-05-22T02:08:44.059Z,29.12
2023-05-22T02:11:12.500Z,29.26
2023-05-22T02:13:39.814Z,29.48
2023-05-22T02:16:07.231Z,29.47
2023-05-22T02:18:34.078Z,30.14
2023-05-22T02:21:01.044Z,30.45
2023-05-22T02:23:29.581Z,30.59
2023-05-22T02:25:56.581Z,30.56
2023-05-22T02:28:23.710Z,30.73
2023-05-22T02:30:50.467Z,30.79
2023-05-22T02:33:18.522Z,30.71
2023-05-22T02:35:45.643Z,30.60
2023-05-22T02:38:12.820Z,30.63
2023-05-22T02:40:40.233Z,30.52
2023-05-22T02:43:07.132Z,30.49
2023-05-22T02:45:33.803Z,30.48
2023-05-22T02:48:03.374Z,29.60
2023-05-22T02:50:30.316Z,29.10
2023-05-22T02:52:56.950Z,29.19
2023-05-22T02:55:23.690Z,29.07
2023-05-22T02:57:50.234Z,29.33
2023-05-22T03:00:17.387Z,29.33
2023-05-22T03:02:44.161Z,29.39
2023-05-22T03:05:10.907Z,29.44
2023-05-22T03:07:37.703Z,30.13
2023-05-22T03:10:04.646Z,30.34
2023-05-22T03:12:31.241Z,29.73
2023-05-22T03:14:58.245Z,29.52
2023-05-22T03:17:24.926Z,29.67
2023-05-22T03:19:51.669Z,29.66
2023-05-22T03:22:21.417Z,29.46
2023-05-22T03:24:48.083Z,29.62
2023-05-22T03:27:17.068Z,29.73
2023-05-22T03:29:43.703Z,29.80
2023-05-22T03:32:10.997Z,30.01
2023-05-22T03:34:37.690Z,29.92
2023-05-22T03:37:08.977Z,30.03
2023-05-22T03:39:36.146Z,30.11
2023-05-22T03:42:16.383Z,30.16
2023-05-22T03:44:42.980Z,30.38
2023-05-22T03:47:09.636Z,29.99
2023-05-22T03:49:36.394Z,29.95
2023-05-22T03:52:04.989Z,30.19
2023-05-22T03:54:31.618Z,30.29
2023-05-22T03:56:58.198Z,29.66
2023-05-22T03:59:24.769Z,29.55
2023-05-22T04:01:51.420Z,29.46
2023-05-22T04:04:18.023Z,29.37
2023-05-22T04:06:45.011Z,29.62
2023-05-22T04:09:13.068Z,29.89
2023-05-22T04:11:39.900Z,30.28
2023-05-22T04:14:06.625Z,30.28
2023-05-22T04:16:33.744Z,30.02
2023-05-22T04:19:03.394Z,29.98
2023-05-22T04:21:34.393Z,29.88
2023-05-22T04:24:07.085Z,30.49
2023-05-22T04:26:34.057Z,30.62
2023-05-22T04:29:01.198Z,30.50
2023-05-22T04:31:28.587Z,30.62
2023-05-22T04:33:55.990Z,30.34
2023-05-22T04:36:25.853Z,30.11
2023-05-22T04:38:53.957Z,28.89
2023-05-22T04:41:22.664Z,28.74
2023-05-22T04:43:52.852Z,28.54
2023-05-22T04:46:19.787Z,28.55
2023-05-22T04:48:47.149Z,28.56
2023-05-22T04:51:14.396Z,28.44
2023-05-22T04:53:41.200Z,28.39
2023-05-22T04:56:07.859Z,28.54
2023-05-22T04:58:34.672Z,28.51
2023-05-22T05:01:01.349Z,28.31
2023-05-22T05:03:28.586Z,28.54
2023-05-22T05:05:56.591Z,29.37
2023-05-22T05:08:23.244Z,29.62
2023-05-22T05:10:49.872Z,28.96
2023-05-22T05:13:17.340Z,29.02
2023-05-22T05:15:45.648Z,29.10
2023-05-22T05:18:12.384Z,29.70
2023-05-22T05:20:39.236Z,30.03
2023-05-22T05:23:06.136Z,29.38
2023-05-22T05:25:33.091Z,29.18
2023-05-22T05:28:00.180Z,29.10
2023-05-22T05:30:27.601Z,28.98
2023-05-22T05:33:08.573Z,28.94
2023-05-22T05:35:42.686Z,29.04
2023-05-22T05:38:11.103Z,29.13
2023-05-22T05:40:40.083Z,29.40
2023-05-22T05:43:09.291Z,29.68
2023-05-22T05:45:36.402Z,30.43
2023-05-22T05:48:03.139Z,29.21
2023-05-22T05:50:30.101Z,28.99
2023-05-22T05:52:57.111Z,28.69
2023-05-22T05:55:23.873Z,28.59
2023-05-22T05:57:51.263Z,28.35
2023-05-22T06:00:35.083Z,28.27
2023-05-22T06:03:01.836Z,29.18
2023-05-22T06:05:52.443Z,29.68
2023-05-22T06:08:34.446Z,29.58
2023-05-22T06:11:01.603Z,29.05
2023-05-22T06:13:38.101Z,28.77
2023-05-22T06:16:06.743Z,29.08
2023-05-22T06:18:34.511Z,29.20
2023-05-22T06:21:01.225Z,30.04
2023-05-22T06:23:27.865Z,29.90
2023-05-22T06:25:55.544Z,30.04
2023-05-22T06:28:22.714Z,29.82
2023-05-22T06:30:49.425Z,29.89
2023-05-22T06:33:18.918Z,29.98
2023-05-22T06:35:45.715Z,29.93
2023-05-22T06:38:12.642Z,30.14
2023-05-22T06:40:41.395Z,30.37
2023-05-22T06:43:13.699Z,30.46
2023-05-22T06:45:51.242Z,30.46
2023-05-22T06:48:36.029Z,29.82
2023-05-22T06:51:10.840Z,29.40
2023-05-22T06:53:39.505Z,29.80
2023-05-22T06:56:11.351Z,29.40
2023-05-22T06:58:56.459Z,30.18
2023-05-22T07:01:31.371Z,29.74
2023-05-22T07:04:05.412Z,29.80
2023-05-22T07:06:52.932Z,29.50
2023-05-22T07:09:20.070Z,29.74
2023-05-22T07:11:48.986Z,29.60
2023-05-22T07:14:16.433Z,29.73
2023-05-22T07:16:43.742Z,30.03
2023-05-22T07:19:11.860Z,30.07
2023-05-22T07:21:39.879Z,29.58
2023-05-22T07:24:10.880Z,29.43
2023-05-22T07:26:46.553Z,29.74
2023-05-22T07:29:14.155Z,29.52
2023-05-22T07:31:42.166Z,29.37
2023-05-22T07:34:09.385Z,29.59
2023-05-22T07:36:36.095Z,29.36
2023-05-22T07:39:04.990Z,29.45
2023-05-22T07:41:35.868Z,29.71
2023-05-22T07:44:02.589Z,29.59
2023-05-22T07:46:35.370Z,29.80
2023-05-22T07:49:10.793Z,29.54
2023-05-22T07:51:41.003Z,29.52
2023-05-22T07:54:08.292Z,29.80
2023-05-22T07:56:39.568Z,29.88
2023-05-22T07:59:07.464Z,29.92
2023-05-22T08:01:34.065Z,29.98
2023-05-22T08:04:01.068Z,30.28
2023-05-22T08:06:27.917Z,30.43
2023-05-22T08:08:54.540Z,30.79
2023-05-22T08:11:21.430Z,31.03
2023-05-22T08:13:48.203Z,30.51
2023-05-22T08:16:14.856Z,31.10
2023-05-22T08:18:41.548Z,31.30
2023-05-22T08:21:08.148Z,31.49
2023-05-22T08:23:36.354Z,31.59
2023-05-22T08:26:03.096Z,31.84
2023-05-22T08:28:29.743Z,31.97
2023-05-22T08:30:56.509Z,31.70
2023-05-22T08:33:23.262Z,31.98
2023-05-22T08:35:49.863Z,31.87
2023-05-22T08:38:17.551Z,32.10
2023-05-22T08:40:48.687Z,32.04
2023-05-22T08:43:15.839Z,31.84
2023-05-22T08:45:44.092Z,32.02
2023-05-22T08:48:13.950Z,32.14
2023-05-22T08:50:46.114Z,32.05
2023-05-22T08:53:15.309Z,32.05
2023-05-22T08:55:42.485Z,31.93
2023-05-22T08:58:11.588Z,31.96
2023-05-22T09:00:38.516Z,32.00
2023-05-22T09:03:06.928Z,31.96
2023-05-22T09:05:34.163Z,32.17
2023-05-22T09:08:16.147Z,32.28
2023-05-22T09:10:46.240Z,32.54
2023-05-22T09:13:27.362Z,32.63
2023-05-22T09:16:08.119Z,32.28
2023-05-22T09:18:37.091Z,32.30
2023-05-22T09:21:08.974Z,32.35
2023-05-22T09:23:41.763Z,32.68
2023-05-22T09:26:08.356Z,32.76
2023-05-22T09:28:36.837Z,32.58
2023-05-22T09:31:04.309Z,32.93
2023-05-22T09:33:32.190Z,32.78
2023-05-22T09:35:59.289Z,32.92
2023-05-22T09:38:29.240Z,32.98
2023-05-22T09:40:56.741Z,33.25
2023-05-22T09:43:25.613Z,33.36
2023-05-22T09:46:01.769Z,33.08
2023-05-22T09:48:28.882Z,33.12
2023-05-22T09:50:57.132Z,33.24
2023-05-22T09:53:28.087Z,33.43
2023-05-22T09:55:58.120Z,33.78
2023-05-22T09:58:27.014Z,33.76
2023-05-22T10:00:58.177Z,33.89
2023-05-22T10:03:27.154Z,34.16
2023-05-22T10:05:56.294Z,33.80
2023-05-22T10:08:28.501Z,33.94
2023-05-22T10:10:55.483Z,34.09
2023-05-22T10:13:22.259Z,34.20
2023-05-22T10:15:50.427Z,34.28
2023-05-22T10:18:17.724Z,34.09
2023-05-22T10:20:47.013Z,34.10
2023-05-22T10:23:16.260Z,34.36
2023-05-22T10:25:44.306Z,34.56
2023-05-22T10:28:12.095Z,33.78
2023-05-22T10:30:58.393Z,32.98
2023-05-22T10:33:51.250Z,33.17
2023-05-22T10:36:41.939Z,32.59
2023-05-22T10:39:44.208Z,32.78
2023-05-22T10:42:14.240Z,32.91
2023-05-22T10:44:41.356Z,32.57
2023-05-22T10:47:13.189Z,32.88
2023-05-22T10:49:46.689Z,32.92
2023-05-22T10:52:18.400Z,32.83
2023-05-22T10:54:46.245Z,32.83
2023-05-22T10:57:17.184Z,32.48
2023-05-22T10:59:47.105Z,32.82
2023-05-22T11:02:22.233Z,32.46
2023-05-22T11:04:49.183Z,32.99
2023-05-22T11:07:15.984Z,33.18
2023-05-22T11:09:48.029Z,33.10
2023-05-22T11:12:24.601Z,33.10
2023-05-22T11:14:58.648Z,33.22
2023-05-22T11:17:52.008Z,33.07
2023-05-22T11:20:25.554Z,33.16
2023-05-22T11:22:59.922Z,33.50
2023-05-22T11:25:28.161Z,33.43
2023-05-22T11:27:55.928Z,33.02
2023-05-22T11:30:28.265Z,32.94
2023-05-22T11:32:55.153Z,33.12
2023-05-22T11:35:22.298Z,33.43
2023-05-22T11:37:51.297Z,33.55
2023-05-22T11:40:25.875Z,33.52
2023-05-22T11:42:53.706Z,33.41
2023-05-22T11:45:20.559Z,33.51
2023-05-22T11:47:48.744Z,33.61
2023-05-22T11:50:22.557Z,33.57
2023-05-22T11:52:53.708Z,33.93
2023-05-22T11:55:20.387Z,33.95
2023-05-22T11:57:47.969Z,34.12
2023-05-22T12:00:15.265Z,34.30
2023-05-22T12:02:49.261Z,34.12
2023-05-22T12:05:16.602Z,34.54
2023-05-22T12:07:43.599Z,34.29
2023-05-22T12:10:10.955Z,34.35
2023-05-22T12:12:37.918Z,34.32
2023-05-22T12:15:08.255Z,34.51
2023-05-22T12:17:38.509Z,34.54
2023-05-22T12:20:07.033Z,34.40
2023-05-22T12:22:33.824Z,34.34
2023-05-22T12:25:00.475Z,34.31
2023-05-22T12:27:33.346Z,33.98
2023-05-22T12:30:09.266Z,34.02
2023-05-22T12:32:36.540Z,34.27
2023-05-22T12:35:03.180Z,34.29
2023-05-22T12:37:31.992Z,34.24
2023-05-22T12:40:03.696Z,34.19
2023-05-22T12:42:30.508Z,34.36
2023-05-22T12:44:58.075Z,34.40
2023-05-22T12:47:25.307Z,34.39
2023-05-22T12:49:52.684Z,34.76
2023-05-22T12:52:19.421Z,34.93
2023-05-22T12:54:46.367Z,35.01
2023-05-22T12:57:13.061Z,35.00
2023-05-22T12:59:39.680Z,35.17
2023-05-22T13:02:06.937Z,34.93
2023-05-22T13:04:33.764Z,34.79
2023-05-22T13:07:01.028Z,35.44
2023-05-22T13:09:27.828Z,35.39
2023-05-22T13:11:55.070Z,35.17
2023-05-22T13:14:21.718Z,35.30
2023-05-22T13:16:48.421Z,35.52
2023-05-22T13:19:15.214Z,35.51
2023-05-22T13:21:43.404Z,35.48
2023-05-22T13:24:09.997Z,35.23
2023-05-22T13:26:36.544Z,35.54
2023-05-22T13:29:03.301Z,35.84
2023-05-22T13:31:31.347Z,35.42
2023-05-22T13:33:57.931Z,35.48
2023-05-22T13:36:24.629Z,35.63
2023-05-22T13:38:51.173Z,35.59
2023-05-22T13:41:17.877Z,35.65
2023-05-22T13:43:44.498Z,35.89
2023-05-22T13:46:11.352Z,35.74
2023-05-22T13:48:37.910Z,35.34
2023-05-22T13:51:04.860Z,34.81
2023-05-22T13:53:31.502Z,34.77
2023-05-22T13:55:58.300Z,34.40
2023-05-22T13:58:25.569Z,34.67
2023-05-22T14:00:52.131Z,34.63
2023-05-22T14:03:18.798Z,34.89
2023-05-22T14:05:45.513Z,34.82
2023-05-22T14:08:12.616Z,34.73
2023-05-22T14:10:39.632Z,34.72
2023-05-22T14:13:06.406Z,34.27
2023-05-22T14:15:33.170Z,34.51
2023-05-22T14:17:59.931Z,34.58
2023-05-22T14:20:26.575Z,34.50
2023-05-22T14:22:57.736Z,34.88
2023-05-22T14:25:26.076Z,34.87
2023-05-22T14:27:52.801Z,35.01
2023-05-22T14:30:19.592Z,35.33
2023-05-22T14:32:46.803Z,35.49
2023-05-22T14:35:13.683Z,35.38
2023-05-22T14:37:40.333Z,35.47
2023-05-22T14:40:10.817Z,35.48
2023-05-22T14:42:37.456Z,35.47
2023-05-22T14:45:04.596Z,35.40
2023-05-22T14:47:31.168Z,35.58
2023-05-22T14:50:03.050Z,35.47
2023-05-22T14:52:41.131Z,35.22
2023-05-22T14:55:08.019Z,35.48
2023-05-22T14:57:34.739Z,35.67
2023-05-22T15:00:01.478Z,35.57
2023-05-22T15:02:28.109Z,35.89
2023-05-22T15:04:54.955Z,36.35
2023-05-22T15:07:24.386Z,36.09
2023-05-22T15:09:53.490Z,36.14
2023-05-22T15:12:21.893Z,36.49
2023-05-22T15:14:49.333Z,36.24
2023-05-22T15:17:16.167Z,36.33
2023-05-22T15:19:45.263Z,36.44
2023-05-22T15:22:19.514Z,36.48
2023-05-22T15:24:48.100Z,36.17
2023-05-22T15:27:14.869Z,36.06
2023-05-22T15:29:41.961Z,36.13
2023-05-22T15:32:09.038Z,35.73
2023-05-22T15:34:35.789Z,35.89
2023-05-22T15:37:02.439Z,36.01
2023-05-22T15:39:29.612Z,36.20
2023-05-22T15:42:05.889Z,36.16
2023-05-22T15:44:33.732Z,36.35
2023-05-22T15:47:00.349Z,36.19
2023-05-22T15:49:30.224Z,36.20
2023-05-22T15:51:58.486Z,36.11
2023-05-22T15:54:25.227Z,36.45
2023-05-22T15:56:51.981Z,36.40
2023-05-22T15:59:18.553Z,36.02
2023-05-22T16:01:45.724Z,35.84
2023-05-22T16:04:12.691Z,36.06
2023-05-22T16:06:39.435Z,36.13
2023-05-22T16:09:06.136Z,35.73
2023-05-22T16:11:33.600Z,35.34
2023-05-22T16:14:00.298Z,35.65
2023-05-22T16:16:27.157Z,35.09
2023-05-22T16:18:53.906Z,35.45
2023-05-22T16:21:20.910Z,35.18
2023-05-22T16:23:47.568Z,35.09
2023-05-22T16:26:14.901Z,34.65
2023-05-22T16:28:41.458Z,32.86
2023-05-22T16:31:08.166Z,32.15
2023-05-22T16:33:37.130Z,32.25
2023-05-22T16:36:04.390Z,32.69
2023-05-22T16:38:31.123Z,31.99
2023-05-22T16:40:57.992Z,31.35
2023-05-22T16:43:24.656Z,31.59
2023-05-22T16:45:51.481Z,31.60
2023-05-22T16:48:18.530Z,31.72
2023-05-22T16:50:46.596Z,31.69
2023-05-22T16:53:16.633Z,31.61
2023-05-22T16:55:43.896Z,31.57
2023-05-22T16:58:12.686Z,31.74
2023-05-22T17:00:40.194Z,31.88
2023-05-22T17:03:08.037Z,31.65
2023-05-22T17:05:35.178Z,31.49
2023-05-22T17:08:01.758Z,31.67
2023-05-22T17:10:28.450Z,31.39
2023-05-22T17:12:55.049Z,31.69
2023-05-22T17:15:21.725Z,31.86
2023-05-22T17:17:48.308Z,31.88
2023-05-22T17:20:15.026Z,31.88
2023-05-22T17:22:42.796Z,31.91
2023-05-22T17:25:09.898Z,31.88
2023-05-22T17:27:37.061Z,31.76
2023-05-22T17:30:05.492Z,31.94
2023-05-22T17:32:32.438Z,32.07
2023-05-22T17:35:00.089Z,32.28
2023-05-22T17:37:26.663Z,32.32
2023-05-22T17:39:53.808Z,32.20
2023-05-22T17:42:20.449Z,32.02
2023-05-22T17:44:47.098Z,32.17
2023-05-22T17:47:13.649Z,32.16
2023-05-22T17:49:40.407Z,32.26
2023-05-22T17:52:08.643Z,32.07
2023-05-22T17:54:36.063Z,32.36
2023-05-22T17:57:05.472Z,32.42
2023-05-22T17:59:32.331Z,32.55
2023-05-22T18:01:59.068Z,31.96
2023-05-22T18:04:25.910Z,31.91
2023-05-22T18:06:52.670Z,32.06
2023-05-22T18:09:19.264Z,32.35
2023-05-22T18:11:45.890Z,32.70
2023-05-22T18:14:12.572Z,32.60
2023-05-22T18:16:39.128Z,32.78
2023-05-22T18:19:05.873Z,32.92
2023-05-22T18:21:32.409Z,32.91
2023-05-22T18:23:59.158Z,32.88
2023-05-22T18:26:26.778Z,33.14
2023-05-22T18:28:53.447Z,32.70
2023-05-22T18:31:20.158Z,32.75
2023-05-22T18:33:47.035Z,32.83
2023-05-22T18:36:13.798Z,32.87
2023-05-22T18:38:40.429Z,33.10
2023-05-22T18:41:07.879Z,33.25
2023-05-22T18:43:34.544Z,33.29
2023-05-22T18:46:01.188Z,33.23
2023-05-22T18:48:28.221Z,33.32
2023-05-22T18:50:57.260Z,33.49
2023-05-22T18:53:25.206Z,33.49
2023-05-22T18:55:52.447Z,33.63
2023-05-22T18:58:19.434Z,33.59
2023-05-22T19:00:46.138Z,33.57
2023-05-22T19:03:13.872Z,33.43
2023-05-22T19:05:40.594Z,33.06
2023-05-22T19:08:07.267Z,32.86
2023-05-22T19:10:33.938Z,32.93
2023-05-22T19:13:00.637Z,32.93
2023-05-22T19:15:27.261Z,33.05
2023-05-22T19:17:53.961Z,33.16
2023-05-22T19:20:20.707Z,32.89
2023-05-22T19:22:47.320Z,32.98
2023-05-22T19:25:13.902Z,32.96
2023-05-22T19:27:40.616Z,32.72
2023-05-22T19:30:07.680Z,32.66
2023-05-22T19:32:34.362Z,32.27
2023-05-22T19:35:01.442Z,32.12
2023-05-22T19:37:29.128Z,32.21
2023-05-22T19:39:55.723Z,32.63
2023-05-22T19:42:22.300Z,32.62
2023-05-22T19:44:48.854Z,32.45
2023-05-22T19:47:15.397Z,32.87
2023-05-22T19:49:41.936Z,32.77
2023-05-22T19:52:08.724Z,32.86
2023-05-22T19:54:35.790Z,32.80
2023-05-22T19:57:03.164Z,32.78
2023-05-22T19:59:29.751Z,32.71
2023-05-22T20:01:56.439Z,33.00
2023-05-22T20:04:23.194Z,32.53
2023-05-22T20:06:50.708Z,32.78
2023-05-22T20:09:17.310Z,32.85
2023-05-22T20:11:44.837Z,32.71
2023-05-22T20:14:12.905Z,32.55
2023-05-22T20:16:39.497Z,32.45
2023-05-22T20:19:06.115Z,32.71
2023-05-22T20:21:32.798Z,32.54
2023-05-22T20:23:59.457Z,32.47
2023-05-22T20:26:26.212Z,32.76
2023-05-22T20:28:52.766Z,32.36
2023-05-22T20:31:19.453Z,31.93
2023-05-22T20:33:46.094Z,31.91
2023-05-22T20:36:14.852Z,32.21
2023-05-22T20:38:42.514Z,32.66
2023-05-22T20:41:12.707Z,32.44
2023-05-22T20:43:42.991Z,32.37
2023-05-22T20:46:10.136Z,32.26
2023-05-22T20:48:36.826Z,32.38
2023-05-22T20:51:03.582Z,32.22
2023-05-22T20:53:30.131Z,32.05
2023-05-22T20:55:57.449Z,32.28
2023-05-22T20:58:24.056Z,32.16
2023-05-22T21:00:50.709Z,32.23
2023-05-22T21:03:17.771Z,32.13
2023-05-22T21:05:44.516Z,31.95
2023-05-22T21:08:11.128Z,31.82
2023-05-22T21:10:37.987Z,31.76
2023-05-22T21:13:04.624Z,31.59
2023-05-22T21:15:31.245Z,31.45
2023-05-22T21:17:57.867Z,31.19
2023-05-22T21:20:24.571Z,30.98
2023-05-22T21:22:51.122Z,31.03
2023-05-22T21:25:17.767Z,31.01
2023-05-22T21:27:46.486Z,30.92
2023-05-22T21:30:14.639Z,30.87
2023-05-22T21:32:41.964Z,30.66
2023-05-22T21:35:09.206Z,30.42
2023-05-22T21:37:35.771Z,30.19
2023-05-22T21:40:02.549Z,30.32
2023-05-22T21:42:41.848Z,30.25
2023-05-22T21:45:12.318Z,30.21
2023-05-22T21:47:38.893Z,30.06
2023-05-22T21:50:06.114Z,30.48
2023-05-22T21:52:32.644Z,30.23
2023-05-22T21:55:01.314Z,30.22
2023-05-22T21:57:28.385Z,29.87
2023-05-22T21:59:55.310Z,29.89
2023-05-22T22:02:21.978Z,29.82
2023-05-22T22:04:48.658Z,29.93
2023-05-22T22:07:15.261Z,29.71
2023-05-22T22:09:41.928Z,29.76
2023-05-22T22:12:08.588Z,29.71
2023-05-22T22:14:35.365Z,29.76
2023-05-22T22:17:02.024Z,29.47
2023-05-22T22:19:28.891Z,29.56
2023-05-22T22:21:55.690Z,29.87
2023-05-22T22:24:22.296Z,29.90
2023-05-22T22:26:49.226Z,29.81
2023-05-22T22:29:16.113Z,29.85
2023-05-22T22:31:42.782Z,29.55
2023-05-22T22:34:09.435Z,29.68
2023-05-22T22:36:35.979Z,29.70
2023-05-22T22:39:02.601Z,29.76
2023-05-22T22:41:29.149Z,29.50
2023-05-22T22:43:55.985Z,29.82
2023-05-22T22:46:22.595Z,29.86
2023-05-22T22:48:49.270Z,29.84
2023-05-22T22:51:15.905Z,30.05
2023-05-22T22:53:42.531Z,29.85
2023-05-22T22:56:09.300Z,28.98
2023-05-22T22:58:36.437Z,28.74
2023-05-22T23:01:04.947Z,28.42
2023-05-22T23:03:31.683Z,28.39
2023-05-22T23:05:58.257Z,28.68
2023-05-22T23:08:24.858Z,28.58
2023-05-22T23:10:51.443Z,28.76
2023-05-22T23:13:18.150Z,28.89
2023-05-22T23:15:44.806Z,28.75
2023-05-22T23:18:13.842Z,28.85
2023-05-22T23:20:40.521Z,28.61
2023-05-22T23:23:07.249Z,28.56
2023-05-22T23:25:33.880Z,28.59
2023-05-22T23:28:00.557Z,28.84
2023-05-22T23:30:27.123Z,28.98
2023-05-22T23:32:53.786Z,28.81
2023-05-22T23:35:20.409Z,28.47
2023-05-22T23:37:47.009Z,28.57
2023-05-22T23:40:13.556Z,28.46
2023-05-22T23:42:40.727Z,28.53
2023-05-22T23:45:07.873Z,28.46
2023-05-22T23:47:34.614Z,28.32
2023-05-22T23:50:01.178Z,28.57
2023-05-22T23:52:27.891Z,28.78
2023-05-22T23:54:54.433Z,29.03
2023-05-22T23:57:21.143Z,28.88
2023-05-22T23:59:47.674Z,28.67
